Statham, Georgia
Current Conditions -  °F | °C
As of 5:15 PM on Monday 24 Nov 2014 (Local Time) from KWDR Reporting Station
Clear Clear  
Wind Chill: 72°   Ceiling: Unl
Heat Index: 72°   Visibility: 10mi
Dew Point: 55°   Wind: 5mph
Humidity: 56%   Direction: 240°WSW
Pressure: 29.85"   Gusts: NA
Location:  33.97°N, 83.6°W
Report Text: KWDR 242215Z AUTO 24004KT 10SM CLR 22/13 A2985 RMK AO2 LTG DSNT E THRU S T02230130
Loading
Personal Weather Stations






























Interactive Weather Map New forecast layout! Learn more

10-Day Weather Forecast

Advertisements
Track Severe Weather on mobile